Portland, Illinois
Current Conditions -  °F | °C
As of 1:35 PM on Saturday 20 Dec 2014 (Local Time) from KSQI Reporting Station
Overcast Overcast  
Wind Chill: 32°   Ceiling: 3300
Heat Index: 32°   Visibility: 8mi
Dew Point: 25°   Wind: 3mph
Humidity: 75%   Direction: 180°S
Pressure: 30.23"   Gusts: NA
Location:  41.5909°N, 89.9498°W
Report Text: KSQI 201935Z 18003KT 8SM OVC033 00/M04 A3023 RMK AO1
Loading
Personal Weather Stations






























Interactive Weather Map New forecast layout! Learn more

10-Day Weather Forecast

Advertisements
Track Severe Weather on mobile